sensor_id;sensor_type;location;lat;lon;timestamp;P1;durP1;ratioP1;P2;durP2;ratioP2
18610;SDS011;9435;52.122;5.502;2023-07-13T00:00:41;11.45;;;2.50;;
18610;SDS011;9435;52.122;5.502;2023-07-13T00:03:08;12.52;;;2.80;;
18610;SDS011;9435;52.122;5.502;2023-07-13T00:05:38;11.38;;;2.45;;
18610;SDS011;9435;52.122;5.502;2023-07-13T00:08:06;11.90;;;2.67;;
18610;SDS011;9435;52.122;5.502;2023-07-13T00:10:38;9.25;;;2.22;;
18610;SDS011;9435;52.122;5.502;2023-07-13T00:13:08;10.40;;;2.58;;
18610;SDS011;9435;52.122;5.502;2023-07-13T00:15:36;10.63;;;2.53;;
18610;SDS011;9435;52.122;5.502;2023-07-13T00:18:03;11.18;;;2.53;;
18610;SDS011;9435;52.122;5.502;2023-07-13T00:20:30;9.07;;;2.25;;
18610;SDS011;9435;52.122;5.502;2023-07-13T00:22:58;10.32;;;2.50;;
18610;SDS011;9435;52.122;5.502;2023-07-13T00:25:26;7.00;;;1.80;;
18610;SDS011;9435;52.122;5.502;2023-07-13T00:27:54;10.38;;;2.40;;
18610;SDS011;9435;52.122;5.502;2023-07-13T00:30:23;13.32;;;2.78;;
18610;SDS011;9435;52.122;5.502;2023-07-13T00:32:51;8.80;;;2.45;;
18610;SDS011;9435;52.122;5.502;2023-07-13T00:35:18;10.93;;;2.50;;
18610;SDS011;9435;52.122;5.502;2023-07-13T00:37:45;7.82;;;2.35;;
18610;SDS011;9435;52.122;5.502;2023-07-13T00:40:13;11.30;;;2.60;;
18610;SDS011;9435;52.122;5.502;2023-07-13T00:42:42;11.05;;;2.85;;
18610;SDS011;9435;52.122;5.502;2023-07-13T00:48:11;7.75;;;2.40;;
18610;SDS011;9435;52.122;5.502;2023-07-13T00:50:41;9.95;;;2.50;;
18610;SDS011;9435;52.122;5.502;2023-07-13T00:53:09;9.13;;;2.50;;
18610;SDS011;9435;52.122;5.502;2023-07-13T00:55:37;9.82;;;2.28;;
18610;SDS011;9435;52.122;5.502;2023-07-13T00:58:05;10.68;;;2.70;;
18610;SDS011;9435;52.122;5.502;2023-07-13T01:00:33;13.60;;;2.55;;
18610;SDS011;9435;52.122;5.502;2023-07-13T01:03:02;9.60;;;2.40;;
18610;SDS011;9435;52.122;5.502;2023-07-13T01:05:32;8.75;;;2.50;;
18610;SDS011;9435;52.122;5.502;2023-07-13T01:08:02;8.32;;;2.30;;
18610;SDS011;9435;52.122;5.502;2023-07-13T01:10:30;9.93;;;2.38;;
18610;SDS011;9435;52.122;5.502;2023-07-13T01:13:04;10.18;;;2.55;;
18610;SDS011;9435;52.122;5.502;2023-07-13T01:15:34;8.82;;;2.30;;
18610;SDS011;9435;52.122;5.502;2023-07-13T01:18:02;9.88;;;2.42;;
18610;SDS011;9435;52.122;5.502;2023-07-13T01:20:32;11.70;;;2.42;;
18610;SDS011;9435;52.122;5.502;2023-07-13T01:23:04;9.15;;;2.58;;
18610;SDS011;9435;52.122;5.502;2023-07-13T01:25:33;9.57;;;2.30;;
18610;SDS011;9435;52.122;5.502;2023-07-13T01:28:01;9.57;;;2.17;;
18610;SDS011;9435;52.122;5.502;2023-07-13T01:33:45;7.82;;;2.42;;
18610;SDS011;9435;52.122;5.502;2023-07-13T01:36:12;8.68;;;2.20;;
18610;SDS011;9435;52.122;5.502;2023-07-13T01:38:40;9.30;;;2.55;;
18610;SDS011;9435;52.122;5.502;2023-07-13T01:41:08;13.02;;;2.95;;
18610;SDS011;9435;52.122;5.502;2023-07-13T01:43:35;7.85;;;2.50;;
18610;SDS011;9435;52.122;5.502;2023-07-13T01:46:02;9.50;;;2.53;;
18610;SDS011;9435;52.122;5.502;2023-07-13T01:48:29;10.32;;;2.42;;
18610;SDS011;9435;52.122;5.502;2023-07-13T01:50:56;9.18;;;2.33;;
18610;SDS011;9435;52.122;5.502;2023-07-13T01:53:23;6.32;;;2.40;;
18610;SDS011;9435;52.122;5.502;2023-07-13T01:55:52;8.20;;;2.65;;
18610;SDS011;9435;52.122;5.502;2023-07-13T01:58:19;11.55;;;2.40;;
18610;SDS011;9435;52.122;5.502;2023-07-13T02:00:47;7.93;;;2.35;;
18610;SDS011;9435;52.122;5.502;2023-07-13T02:03:15;11.52;;;2.75;;
18610;SDS011;9435;52.122;5.502;2023-07-13T02:05:43;10.18;;;2.58;;
18610;SDS011;9435;52.122;5.502;2023-07-13T02:08:10;9.10;;;2.35;;
18610;SDS011;9435;52.122;5.502;2023-07-13T02:10:38;8.65;;;2.42;;
18610;SDS011;9435;52.122;5.502;2023-07-13T02:13:07;9.45;;;2.50;;
18610;SDS011;9435;52.122;5.502;2023-07-13T02:15:34;9.88;;;2.60;;
18610;SDS011;9435;52.122;5.502;2023-07-13T02:18:04;8.75;;;2.38;;
18610;SDS011;9435;52.122;5.502;2023-07-13T02:20:32;9.18;;;2.75;;
18610;SDS011;9435;52.122;5.502;2023-07-13T02:22:59;11.43;;;3.17;;
18610;SDS011;9435;52.122;5.502;2023-07-13T02:25:26;6.38;;;2.40;;
18610;SDS011;9435;52.122;5.502;2023-07-13T02:27:53;9.95;;;2.55;;
18610;SDS011;9435;52.122;5.502;2023-07-13T02:30:22;11.98;;;2.92;;
18610;SDS011;9435;52.122;5.502;2023-07-13T02:32:50;9.32;;;2.60;;
18610;SDS011;9435;52.122;5.502;2023-07-13T02:35:17;8.88;;;2.53;;
18610;SDS011;9435;52.122;5.502;2023-07-13T02:37:44;10.73;;;2.40;;
18610;SDS011;9435;52.122;5.502;2023-07-13T02:40:11;8.10;;;2.60;;
18610;SDS011;9435;52.122;5.502;2023-07-13T02:42:39;9.18;;;2.80;;
18610;SDS011;9435;52.122;5.502;2023-07-13T02:45:06;7.88;;;2.67;;
18610;SDS011;9435;52.122;5.502;2023-07-13T02:47:36;7.80;;;2.72;;
18610;SDS011;9435;52.122;5.502;2023-07-13T02:50:04;7.85;;;2.58;;
18610;SDS011;9435;52.122;5.502;2023-07-13T02:52:32;12.73;;;3.25;;
18610;SDS011;9435;52.122;5.502;2023-07-13T02:54:59;9.77;;;3.28;;
18610;SDS011;9435;52.122;5.502;2023-07-13T02:57:26;8.70;;;2.95;;
18610;SDS011;9435;52.122;5.502;2023-07-13T02:59:53;11.40;;;3.03;;
18610;SDS011;9435;52.122;5.502;2023-07-13T03:02:21;11.40;;;3.13;;
18610;SDS011;9435;52.122;5.502;2023-07-13T03:04:49;10.55;;;3.13;;
18610;SDS011;9435;52.122;5.502;2023-07-13T03:07:16;11.50;;;3.33;;
18610;SDS011;9435;52.122;5.502;2023-07-13T03:09:44;13.35;;;3.15;;
18610;SDS011;9435;52.122;5.502;2023-07-13T03:12:11;8.27;;;3.25;;
18610;SDS011;9435;52.122;5.502;2023-07-13T03:14:38;9.07;;;3.40;;
18610;SDS011;9435;52.122;5.502;2023-07-13T03:17:05;14.40;;;3.55;;
18610;SDS011;9435;52.122;5.502;2023-07-13T03:19:32;11.30;;;3.65;;
18610;SDS011;9435;52.122;5.502;2023-07-13T03:22:01;12.90;;;3.33;;
18610;SDS011;9435;52.122;5.502;2023-07-13T03:24:28;10.00;;;3.60;;
18610;SDS011;9435;52.122;5.502;2023-07-13T03:26:56;9.98;;;3.42;;
18610;SDS011;9435;52.122;5.502;2023-07-13T03:29:23;14.10;;;3.70;;
18610;SDS011;9435;52.122;5.502;2023-07-13T03:31:50;11.95;;;3.67;;
18610;SDS011;9435;52.122;5.502;2023-07-13T03:34:17;15.18;;;3.72;;
18610;SDS011;9435;52.122;5.502;2023-07-13T03:36:44;11.68;;;4.22;;
18610;SDS011;9435;52.122;5.502;2023-07-13T03:39:13;10.25;;;3.42;;
18610;SDS011;9435;52.122;5.502;2023-07-13T03:41:40;15.10;;;3.88;;
18610;SDS011;9435;52.122;5.502;2023-07-13T03:44:07;12.07;;;3.80;;
18610;SDS011;9435;52.122;5.502;2023-07-13T03:46:34;13.95;;;3.80;;
18610;SDS011;9435;52.122;5.502;2023-07-13T03:49:03;14.93;;;3.67;;
18610;SDS011;9435;52.122;5.502;2023-07-13T03:51:31;10.60;;;3.80;;
18610;SDS011;9435;52.122;5.502;2023-07-13T03:53:58;9.13;;;3.47;;
18610;SDS011;9435;52.122;5.502;2023-07-13T03:56:27;11.30;;;3.83;;
18610;SDS011;9435;52.122;5.502;2023-07-13T03:58:55;14.45;;;3.85;;
18610;SDS011;9435;52.122;5.502;2023-07-13T04:01:23;12.38;;;3.60;;
18610;SDS011;9435;52.122;5.502;2023-07-13T04:03:51;12.52;;;3.83;;
18610;SDS011;9435;52.122;5.502;2023-07-13T04:06:20;13.10;;;3.88;;
18610;SDS011;9435;52.122;5.502;2023-07-13T04:08:51;16.27;;;4.13;;
18610;SDS011;9435;52.122;5.502;2023-07-13T04:11:20;11.88;;;4.03;;
18610;SDS011;9435;52.122;5.502;2023-07-13T04:13:51;16.58;;;4.35;;
18610;SDS011;9435;52.122;5.502;2023-07-13T04:16:18;16.67;;;4.53;;
18610;SDS011;9435;52.122;5.502;2023-07-13T04:18:46;16.35;;;4.13;;
18610;SDS011;9435;52.122;5.502;2023-07-13T04:21:14;17.40;;;4.82;;
18610;SDS011;9435;52.122;5.502;2023-07-13T04:23:42;23.40;;;4.57;;
18610;SDS011;9435;52.122;5.502;2023-07-13T04:26:10;15.27;;;4.57;;
18610;SDS011;9435;52.122;5.502;2023-07-13T04:28:37;17.25;;;4.60;;
18610;SDS011;9435;52.122;5.502;2023-07-13T04:31:08;12.35;;;4.07;;
18610;SDS011;9435;52.122;5.502;2023-07-13T04:33:35;16.70;;;4.85;;
18610;SDS011;9435;52.122;5.502;2023-07-13T04:36:03;16.30;;;4.75;;
18610;SDS011;9435;52.122;5.502;2023-07-13T04:38:34;15.45;;;4.90;;
18610;SDS011;9435;52.122;5.502;2023-07-13T04:41:04;15.50;;;4.82;;
18610;SDS011;9435;52.122;5.502;2023-07-13T04:43:34;20.23;;;4.95;;
18610;SDS011;9435;52.122;5.502;2023-07-13T04:46:06;17.13;;;5.40;;
18610;SDS011;9435;52.122;5.502;2023-07-13T04:48:37;15.60;;;4.63;;
18610;SDS011;9435;52.122;5.502;2023-07-13T04:51:04;14.95;;;5.05;;
18610;SDS011;9435;52.122;5.502;2023-07-13T04:53:32;17.92;;;5.15;;
18610;SDS011;9435;52.122;5.502;2023-07-13T04:55:59;15.18;;;5.20;;
18610;SDS011;9435;52.122;5.502;2023-07-13T04:58:27;18.42;;;5.28;;
18610;SDS011;9435;52.122;5.502;2023-07-13T05:00:59;19.98;;;5.20;;
18610;SDS011;9435;52.122;5.502;2023-07-13T05:03:28;21.27;;;5.32;;
18610;SDS011;9435;52.122;5.502;2023-07-13T05:05:56;20.02;;;5.88;;
18610;SDS011;9435;52.122;5.502;2023-07-13T05:08:24;22.13;;;5.72;;
18610;SDS011;9435;52.122;5.502;2023-07-13T05:10:52;18.48;;;5.50;;
18610;SDS011;9435;52.122;5.502;2023-07-13T05:13:19;20.83;;;5.97;;
18610;SDS011;9435;52.122;5.502;2023-07-13T05:15:52;20.88;;;5.38;;
18610;SDS011;9435;52.122;5.502;2023-07-13T05:18:22;22.25;;;5.70;;
18610;SDS011;9435;52.122;5.502;2023-07-13T05:20:56;18.83;;;5.85;;
18610;SDS011;9435;52.122;5.502;2023-07-13T05:23:24;24.27;;;6.05;;
18610;SDS011;9435;52.122;5.502;2023-07-13T05:25:52;19.27;;;6.10;;
18610;SDS011;9435;52.122;5.502;2023-07-13T05:28:19;19.52;;;6.22;;
18610;SDS011;9435;52.122;5.502;2023-07-13T05:30:46;23.55;;;6.38;;
18610;SDS011;9435;52.122;5.502;2023-07-13T05:33:14;23.70;;;6.32;;
18610;SDS011;9435;52.122;5.502;2023-07-13T05:35:41;21.60;;;6.90;;
18610;SDS011;9435;52.122;5.502;2023-07-13T05:38:09;21.77;;;6.55;;
18610;SDS011;9435;52.122;5.502;2023-07-13T05:40:37;19.92;;;6.72;;
18610;SDS011;9435;52.122;5.502;2023-07-13T05:43:04;21.42;;;7.18;;
18610;SDS011;9435;52.122;5.502;2023-07-13T05:45:31;18.85;;;7.20;;
18610;SDS011;9435;52.122;5.502;2023-07-13T05:47:58;21.50;;;6.78;;
18610;SDS011;9435;52.122;5.502;2023-07-13T05:50:25;24.83;;;8.07;;
18610;SDS011;9435;52.122;5.502;2023-07-13T05:52:53;26.25;;;8.75;;
18610;SDS011;9435;52.122;5.502;2023-07-13T05:55:21;25.38;;;9.18;;
18610;SDS011;9435;52.122;5.502;2023-07-13T05:57:48;23.73;;;8.05;;
18610;SDS011;9435;52.122;5.502;2023-07-13T06:00:16;30.92;;;10.20;;
18610;SDS011;9435;52.122;5.502;2023-07-13T06:02:43;21.80;;;9.80;;
18610;SDS011;9435;52.122;5.502;2023-07-13T06:05:11;25.33;;;10.77;;
18610;SDS011;9435;52.122;5.502;2023-07-13T06:07:38;24.92;;;10.48;;
18610;SDS011;9435;52.122;5.502;2023-07-13T06:10:05;28.88;;;10.85;;
18610;SDS011;9435;52.122;5.502;2023-07-13T06:12:34;26.48;;;11.15;;
18610;SDS011;9435;52.122;5.502;2023-07-13T06:15:02;28.23;;;10.45;;
18610;SDS011;9435;52.122;5.502;2023-07-13T06:17:29;24.92;;;10.50;;
18610;SDS011;9435;52.122;5.502;2023-07-13T06:19:57;27.45;;;10.32;;
18610;SDS011;9435;52.122;5.502;2023-07-13T06:22:24;24.45;;;10.15;;
18610;SDS011;9435;52.122;5.502;2023-07-13T06:24:51;21.52;;;9.18;;
18610;SDS011;9435;52.122;5.502;2023-07-13T06:27:19;24.15;;;9.75;;
18610;SDS011;9435;52.122;5.502;2023-07-13T06:29:47;27.67;;;10.70;;
18610;SDS011;9435;52.122;5.502;2023-07-13T06:32:15;25.33;;;9.75;;
18610;SDS011;9435;52.122;5.502;2023-07-13T06:34:42;27.92;;;9.85;;
18610;SDS011;9435;52.122;5.502;2023-07-13T06:37:09;29.35;;;11.30;;
18610;SDS011;9435;52.122;5.502;2023-07-13T06:39:36;27.17;;;11.23;;
18610;SDS011;9435;52.122;5.502;2023-07-13T06:42:04;22.05;;;9.70;;
18610;SDS011;9435;52.122;5.502;2023-07-13T06:44:32;36.03;;;11.45;;
18610;SDS011;9435;52.122;5.502;2023-07-13T06:47:01;32.55;;;12.23;;
18610;SDS011;9435;52.122;5.502;2023-07-13T06:49:28;29.08;;;10.68;;
18610;SDS011;9435;52.122;5.502;2023-07-13T06:51:55;30.20;;;11.13;;
18610;SDS011;9435;52.122;5.502;2023-07-13T06:54:22;28.15;;;12.10;;
18610;SDS011;9435;52.122;5.502;2023-07-13T06:56:50;28.08;;;11.65;;
18610;SDS011;9435;52.122;5.502;2023-07-13T06:59:17;28.83;;;11.48;;
18610;SDS011;9435;52.122;5.502;2023-07-13T07:01:45;25.05;;;10.75;;
18610;SDS011;9435;52.122;5.502;2023-07-13T07:04:13;26.20;;;10.90;;
18610;SDS011;9435;52.122;5.502;2023-07-13T07:06:40;28.52;;;11.32;;
18610;SDS011;9435;52.122;5.502;2023-07-13T07:09:07;22.73;;;11.25;;
18610;SDS011;9435;52.122;5.502;2023-07-13T07:11:35;27.77;;;11.23;;
18610;SDS011;9435;52.122;5.502;2023-07-13T07:14:02;27.23;;;11.27;;
18610;SDS011;9435;52.122;5.502;2023-07-13T07:16:29;29.27;;;11.70;;
18610;SDS011;9435;52.122;5.502;2023-07-13T07:18:57;25.50;;;11.48;;
18610;SDS011;9435;52.122;5.502;2023-07-13T07:21:25;26.83;;;10.98;;
18610;SDS011;9435;52.122;5.502;2023-07-13T07:23:52;27.17;;;11.57;;
18610;SDS011;9435;52.122;5.502;2023-07-13T07:26:20;29.67;;;12.82;;
18610;SDS011;9435;52.122;5.502;2023-07-13T07:28:47;28.42;;;12.38;;
18610;SDS011;9435;52.122;5.502;2023-07-13T07:31:14;25.15;;;10.88;;
18610;SDS011;9435;52.122;5.502;2023-07-13T07:33:41;22.58;;;10.32;;
18610;SDS011;9435;52.122;5.502;2023-07-13T07:36:08;23.25;;;10.77;;
18610;SDS011;9435;52.122;5.502;2023-07-13T07:38:38;29.00;;;11.18;;
18610;SDS011;9435;52.122;5.502;2023-07-13T07:41:05;30.65;;;11.63;;
18610;SDS011;9435;52.122;5.502;2023-07-13T07:43:32;30.10;;;12.05;;
18610;SDS011;9435;52.122;5.502;2023-07-13T07:45:59;28.52;;;11.70;;
18610;SDS011;9435;52.122;5.502;2023-07-13T07:48:27;23.33;;;11.05;;
18610;SDS011;9435;52.122;5.502;2023-07-13T07:50:54;22.60;;;11.18;;
18610;SDS011;9435;52.122;5.502;2023-07-13T07:53:21;31.15;;;12.23;;
18610;SDS011;9435;52.122;5.502;2023-07-13T07:55:50;22.85;;;10.95;;
18610;SDS011;9435;52.122;5.502;2023-07-13T07:58:17;26.42;;;12.25;;
18610;SDS011;9435;52.122;5.502;2023-07-13T08:00:45;23.67;;;12.38;;
18610;SDS011;9435;52.122;5.502;2023-07-13T08:03:12;27.77;;;11.93;;
18610;SDS011;9435;52.122;5.502;2023-07-13T08:05:39;27.70;;;12.00;;
18610;SDS011;9435;52.122;5.502;2023-07-13T08:08:06;24.35;;;11.13;;
18610;SDS011;9435;52.122;5.502;2023-07-13T08:10:35;24.38;;;10.82;;
18610;SDS011;9435;52.122;5.502;2023-07-13T08:13:04;21.63;;;10.13;;
18610;SDS011;9435;52.122;5.502;2023-07-13T08:15:31;21.63;;;10.38;;
18610;SDS011;9435;52.122;5.502;2023-07-13T08:17:58;25.58;;;10.55;;
18610;SDS011;9435;52.122;5.502;2023-07-13T08:20:25;27.52;;;10.82;;
18610;SDS011;9435;52.122;5.502;2023-07-13T08:22:52;24.92;;;10.30;;
18610;SDS011;9435;52.122;5.502;2023-07-13T08:25:19;27.75;;;10.27;;
18610;SDS011;9435;52.122;5.502;2023-07-13T08:27:47;21.45;;;9.77;;
18610;SDS011;9435;52.122;5.502;2023-07-13T08:30:16;19.10;;;9.43;;
18610;SDS011;9435;52.122;5.502;2023-07-13T08:32:43;23.88;;;9.32;;
18610;SDS011;9435;52.122;5.502;2023-07-13T08:35:11;17.35;;;8.07;;
18610;SDS011;9435;52.122;5.502;2023-07-13T08:37:39;25.83;;;9.05;;
18610;SDS011;9435;52.122;5.502;2023-07-13T08:40:07;18.05;;;8.57;;
18610;SDS011;9435;52.122;5.502;2023-07-13T08:42:37;17.50;;;7.60;;
18610;SDS011;9435;52.122;5.502;2023-07-13T08:45:13;16.52;;;7.13;;
18610;SDS011;9435;52.122;5.502;2023-07-13T08:47:49;16.98;;;6.07;;
18610;SDS011;9435;52.122;5.502;2023-07-13T08:50:21;11.45;;;5.50;;
18610;SDS011;9435;52.122;5.502;2023-07-13T08:52:52;14.50;;;5.20;;
18610;SDS011;9435;52.122;5.502;2023-07-13T08:55:24;12.13;;;4.03;;
18610;SDS011;9435;52.122;5.502;2023-07-13T08:58:02;8.60;;;3.15;;
18610;SDS011;9435;52.122;5.502;2023-07-13T09:00:38;9.00;;;2.72;;
18610;SDS011;9435;52.122;5.502;2023-07-13T09:03:16;6.10;;;2.53;;
18610;SDS011;9435;52.122;5.502;2023-07-13T09:05:49;7.78;;;2.60;;
18610;SDS011;9435;52.122;5.502;2023-07-13T09:08:40;7.15;;;2.45;;
18610;SDS011;9435;52.122;5.502;2023-07-13T09:11:20;5.90;;;2.30;;
18610;SDS011;9435;52.122;5.502;2023-07-13T09:14:01;5.78;;;2.40;;
18610;SDS011;9435;52.122;5.502;2023-07-13T09:16:34;8.32;;;2.58;;
18610;SDS011;9435;52.122;5.502;2023-07-13T09:19:04;7.07;;;2.75;;
18610;SDS011;9435;52.122;5.502;2023-07-13T09:21:33;7.47;;;2.60;;
18610;SDS011;9435;52.122;5.502;2023-07-13T09:24:28;7.22;;;2.63;;
18610;SDS011;9435;52.122;5.502;2023-07-13T09:27:03;10.23;;;3.95;;
18610;SDS011;9435;52.122;5.502;2023-07-13T09:29:40;10.13;;;3.50;;
18610;SDS011;9435;52.122;5.502;2023-07-13T09:32:15;10.38;;;3.63;;
18610;SDS011;9435;52.122;5.502;2023-07-13T09:34:51;7.53;;;3.28;;
18610;SDS011;9435;52.122;5.502;2023-07-13T09:37:20;11.40;;;3.70;;
18610;SDS011;9435;52.122;5.502;2023-07-13T09:39:50;8.00;;;3.03;;
18610;SDS011;9435;52.122;5.502;2023-07-13T09:42:19;9.15;;;2.88;;
18610;SDS011;9435;52.122;5.502;2023-07-13T09:44:52;8.32;;;3.10;;
18610;SDS011;9435;52.122;5.502;2023-07-13T09:47:22;9.27;;;3.10;;
18610;SDS011;9435;52.122;5.502;2023-07-13T09:49:55;9.63;;;3.20;;
18610;SDS011;9435;52.122;5.502;2023-07-13T09:52:23;9.90;;;3.50;;
18610;SDS011;9435;52.122;5.502;2023-07-13T09:54:53;7.53;;;3.05;;
18610;SDS011;9435;52.122;5.502;2023-07-13T09:57:24;7.47;;;2.85;;
18610;SDS011;9435;52.122;5.502;2023-07-13T09:59:53;5.88;;;2.63;;
18610;SDS011;9435;52.122;5.502;2023-07-13T10:02:26;7.80;;;2.90;;
18610;SDS011;9435;52.122;5.502;2023-07-13T10:04:55;9.98;;;2.60;;
18610;SDS011;9435;52.122;5.502;2023-07-13T10:07:24;11.80;;;3.72;;
18610;SDS011;9435;52.122;5.502;2023-07-13T10:09:51;7.47;;;2.28;;
18610;SDS011;9435;52.122;5.502;2023-07-13T10:12:19;5.53;;;2.10;;
18610;SDS011;9435;52.122;5.502;2023-07-13T10:14:50;5.70;;;2.00;;
18610;SDS011;9435;52.122;5.502;2023-07-13T10:17:21;3.50;;;2.08;;
18610;SDS011;9435;52.122;5.502;2023-07-13T10:19:57;6.80;;;2.67;;
18610;SDS011;9435;52.122;5.502;2023-07-13T10:22:31;7.32;;;3.00;;
18610;SDS011;9435;52.122;5.502;2023-07-13T10:25:10;6.60;;;3.10;;
18610;SDS011;9435;52.122;5.502;2023-07-13T10:27:43;8.85;;;3.08;;
18610;SDS011;9435;52.122;5.502;2023-07-13T10:30:13;6.07;;;3.30;;
18610;SDS011;9435;52.122;5.502;2023-07-13T10:32:45;7.13;;;3.28;;
18610;SDS011;9435;52.122;5.502;2023-07-13T10:35:14;6.13;;;2.90;;
18610;SDS011;9435;52.122;5.502;2023-07-13T10:37:44;7.50;;;2.97;;
18610;SDS011;9435;52.122;5.502;2023-07-13T10:40:16;7.00;;;3.00;;
18610;SDS011;9435;52.122;5.502;2023-07-13T10:42:48;8.10;;;3.20;;
18610;SDS011;9435;52.122;5.502;2023-07-13T10:45:18;7.10;;;3.30;;
18610;SDS011;9435;52.122;5.502;2023-07-13T10:47:48;8.13;;;2.90;;
18610;SDS011;9435;52.122;5.502;2023-07-13T10:50:19;6.70;;;3.00;;
18610;SDS011;9435;52.122;5.502;2023-07-13T10:52:50;7.10;;;2.70;;
18610;SDS011;9435;52.122;5.502;2023-07-13T10:55:32;6.30;;;2.78;;
18610;SDS011;9435;52.122;5.502;2023-07-13T10:58:02;7.13;;;2.70;;
18610;SDS011;9435;52.122;5.502;2023-07-13T11:00:43;5.75;;;2.80;;
18610;SDS011;9435;52.122;5.502;2023-07-13T11:03:17;6.70;;;2.80;;
18610;SDS011;9435;52.122;5.502;2023-07-13T11:05:48;8.15;;;2.75;;
18610;SDS011;9435;52.122;5.502;2023-07-13T11:08:20;7.25;;;2.67;;
18610;SDS011;9435;52.122;5.502;2023-07-13T11:11:01;6.47;;;2.90;;
18610;SDS011;9435;52.122;5.502;2023-07-13T11:16:33;5.65;;;2.30;;
18610;SDS011;9435;52.122;5.502;2023-07-13T11:22:09;5.90;;;2.20;;
18610;SDS011;9435;52.122;5.502;2023-07-13T11:24:48;6.78;;;2.47;;
18610;SDS011;9435;52.122;5.502;2023-07-13T11:27:27;4.63;;;2.58;;
18610;SDS011;9435;52.122;5.502;2023-07-13T11:35:51;4.43;;;2.45;;
18610;SDS011;9435;52.122;5.502;2023-07-13T11:38:30;5.15;;;2.60;;
18610;SDS011;9435;52.122;5.502;2023-07-13T11:41:01;5.80;;;2.47;;
18610;SDS011;9435;52.122;5.502;2023-07-13T11:43:30;7.25;;;2.80;;
18610;SDS011;9435;52.122;5.502;2023-07-13T11:45:59;7.03;;;2.70;;
18610;SDS011;9435;52.122;5.502;2023-07-13T11:48:40;5.85;;;2.83;;
18610;SDS011;9435;52.122;5.502;2023-07-13T11:51:09;11.38;;;3.40;;
18610;SDS011;9435;52.122;5.502;2023-07-13T11:53:49;7.88;;;3.03;;
18610;SDS011;9435;52.122;5.502;2023-07-13T11:56:17;8.52;;;3.30;;
18610;SDS011;9435;52.122;5.502;2023-07-13T11:58:47;8.05;;;3.05;;
18610;SDS011;9435;52.122;5.502;2023-07-13T12:01:17;5.78;;;2.75;;
18610;SDS011;9435;52.122;5.502;2023-07-13T12:03:47;8.10;;;3.30;;
18610;SDS011;9435;52.122;5.502;2023-07-13T12:06:25;6.35;;;3.28;;
18610;SDS011;9435;52.122;5.502;2023-07-13T12:08:57;8.30;;;3.20;;
18610;SDS011;9435;52.122;5.502;2023-07-13T12:11:26;7.60;;;3.30;;
18610;SDS011;9435;52.122;5.502;2023-07-13T12:13:54;6.40;;;2.92;;
18610;SDS011;9435;52.122;5.502;2023-07-13T12:16:23;6.03;;;3.10;;
18610;SDS011;9435;52.122;5.502;2023-07-13T12:18:55;5.60;;;3.30;;
18610;SDS011;9435;52.122;5.502;2023-07-13T12:21:32;9.82;;;3.63;;
18610;SDS011;9435;52.122;5.502;2023-07-13T12:24:02;9.70;;;3.45;;
18610;SDS011;9435;52.122;5.502;2023-07-13T12:26:31;9.88;;;3.28;;
18610;SDS011;9435;52.122;5.502;2023-07-13T12:28:58;7.20;;;3.33;;
18610;SDS011;9435;52.122;5.502;2023-07-13T12:31:32;7.35;;;3.25;;
18610;SDS011;9435;52.122;5.502;2023-07-13T12:34:02;6.43;;;3.05;;
18610;SDS011;9435;52.122;5.502;2023-07-13T12:36:33;9.95;;;3.42;;
18610;SDS011;9435;52.122;5.502;2023-07-13T12:39:06;8.63;;;3.70;;
18610;SDS011;9435;52.122;5.502;2023-07-13T12:41:39;7.55;;;3.00;;
18610;SDS011;9435;52.122;5.502;2023-07-13T12:44:11;9.15;;;3.22;;
18610;SDS011;9435;52.122;5.502;2023-07-13T12:46:39;9.23;;;3.30;;
18610;SDS011;9435;52.122;5.502;2023-07-13T12:49:18;6.82;;;3.15;;
18610;SDS011;9435;52.122;5.502;2023-07-13T12:51:55;6.95;;;3.53;;
18610;SDS011;9435;52.122;5.502;2023-07-13T12:54:26;8.23;;;3.50;;
18610;SDS011;9435;52.122;5.502;2023-07-13T12:56:55;7.40;;;3.28;;
18610;SDS011;9435;52.122;5.502;2023-07-13T12:59:24;6.75;;;2.83;;
18610;SDS011;9435;52.122;5.502;2023-07-13T13:01:55;9.02;;;3.05;;
18610;SDS011;9435;52.122;5.502;2023-07-13T13:04:23;10.32;;;3.00;;
18610;SDS011;9435;52.122;5.502;2023-07-13T13:07:00;5.80;;;2.78;;
18610;SDS011;9435;52.122;5.502;2023-07-13T13:09:30;5.15;;;2.47;;
18610;SDS011;9435;52.122;5.502;2023-07-13T13:11:57;9.00;;;3.08;;
18610;SDS011;9435;52.122;5.502;2023-07-13T13:14:24;7.35;;;3.00;;
18610;SDS011;9435;52.122;5.502;2023-07-13T13:16:52;8.45;;;3.22;;
18610;SDS011;9435;52.122;5.502;2023-07-13T13:19:21;7.65;;;3.08;;
18610;SDS011;9435;52.122;5.502;2023-07-13T13:21:50;7.93;;;3.17;;
18610;SDS011;9435;52.122;5.502;2023-07-13T13:24:18;7.55;;;2.90;;
18610;SDS011;9435;52.122;5.502;2023-07-13T13:26:50;7.70;;;2.90;;
18610;SDS011;9435;52.122;5.502;2023-07-13T13:29:19;6.57;;;3.10;;
18610;SDS011;9435;52.122;5.502;2023-07-13T13:31:49;6.05;;;2.88;;
18610;SDS011;9435;52.122;5.502;2023-07-13T13:34:17;6.90;;;3.03;;
18610;SDS011;9435;52.122;5.502;2023-07-13T13:36:48;7.57;;;2.67;;
18610;SDS011;9435;52.122;5.502;2023-07-13T13:39:21;6.22;;;2.47;;
18610;SDS011;9435;52.122;5.502;2023-07-13T13:41:51;6.90;;;2.80;;
18610;SDS011;9435;52.122;5.502;2023-07-13T13:44:19;8.05;;;2.90;;
18610;SDS011;9435;52.122;5.502;2023-07-13T13:46:49;6.82;;;2.80;;
18610;SDS011;9435;52.122;5.502;2023-07-13T13:49:19;8.18;;;3.22;;
18610;SDS011;9435;52.122;5.502;2023-07-13T13:51:49;7.45;;;2.70;;
18610;SDS011;9435;52.122;5.502;2023-07-13T13:54:17;7.40;;;2.58;;
18610;SDS011;9435;52.122;5.502;2023-07-13T13:56:46;5.13;;;2.55;;
18610;SDS011;9435;52.122;5.502;2023-07-13T13:59:16;4.78;;;2.72;;
18610;SDS011;9435;52.122;5.502;2023-07-13T14:01:44;8.13;;;2.70;;
18610;SDS011;9435;52.122;5.502;2023-07-13T14:04:15;8.05;;;2.85;;
18610;SDS011;9435;52.122;5.502;2023-07-13T14:06:44;5.75;;;2.75;;
18610;SDS011;9435;52.122;5.502;2023-07-13T14:09:12;8.43;;;2.70;;
18610;SDS011;9435;52.122;5.502;2023-07-13T14:11:41;5.00;;;2.60;;
18610;SDS011;9435;52.122;5.502;2023-07-13T14:14:09;7.10;;;2.90;;
18610;SDS011;9435;52.122;5.502;2023-07-13T14:16:44;4.85;;;2.88;;
18610;SDS011;9435;52.122;5.502;2023-07-13T14:19:18;7.53;;;2.90;;
18610;SDS011;9435;52.122;5.502;2023-07-13T14:21:46;5.03;;;2.70;;
18610;SDS011;9435;52.122;5.502;2023-07-13T14:24:14;6.40;;;3.00;;
18610;SDS011;9435;52.122;5.502;2023-07-13T14:26:41;7.43;;;2.90;;
18610;SDS011;9435;52.122;5.502;2023-07-13T14:29:11;5.43;;;3.10;;
18610;SDS011;9435;52.122;5.502;2023-07-13T14:31:42;7.57;;;2.83;;
18610;SDS011;9435;52.122;5.502;2023-07-13T14:34:11;7.40;;;2.92;;
18610;SDS011;9435;52.122;5.502;2023-07-13T14:36:40;8.93;;;3.20;;
18610;SDS011;9435;52.122;5.502;2023-07-13T14:39:11;6.65;;;3.05;;
18610;SDS011;9435;52.122;5.502;2023-07-13T14:41:41;6.15;;;2.95;;
18610;SDS011;9435;52.122;5.502;2023-07-13T14:44:12;6.10;;;3.05;;
18610;SDS011;9435;52.122;5.502;2023-07-13T14:46:40;8.63;;;2.97;;
18610;SDS011;9435;52.122;5.502;2023-07-13T14:49:13;3.58;;;2.38;;
18610;SDS011;9435;52.122;5.502;2023-07-13T14:51:47;4.57;;;2.63;;
18610;SDS011;9435;52.122;5.502;2023-07-13T14:54:14;6.13;;;2.70;;
18610;SDS011;9435;52.122;5.502;2023-07-13T14:56:41;7.53;;;2.38;;
18610;SDS011;9435;52.122;5.502;2023-07-13T14:59:08;7.15;;;2.58;;
18610;SDS011;9435;52.122;5.502;2023-07-13T15:01:37;6.68;;;2.60;;
18610;SDS011;9435;52.122;5.502;2023-07-13T15:04:06;7.18;;;2.72;;
18610;SDS011;9435;52.122;5.502;2023-07-13T15:06:46;6.45;;;2.60;;
18610;SDS011;9435;52.122;5.502;2023-07-13T15:09:19;5.75;;;2.67;;
18610;SDS011;9435;52.122;5.502;2023-07-13T15:11:46;6.57;;;2.75;;
18610;SDS011;9435;52.122;5.502;2023-07-13T15:14:13;6.72;;;2.53;;
18610;SDS011;9435;52.122;5.502;2023-07-13T15:16:41;8.45;;;2.58;;
18610;SDS011;9435;52.122;5.502;2023-07-13T15:19:09;6.88;;;2.70;;
18610;SDS011;9435;52.122;5.502;2023-07-13T15:21:38;6.00;;;2.60;;
18610;SDS011;9435;52.122;5.502;2023-07-13T15:24:05;6.25;;;2.55;;